Terminal Aerodrome Forecast
Issued by NWS

Home | Current Version | Previous Version | Text Only | Print | Product List | Glossary On
Versions: 1 2 3 4 5 6 7 8 9 10 11 12 13 14 15 16 17 18
000
FTAK31 PAJN 291100 RRA
TAFAJN
TAF
PAJN 291142Z 2912/3012 10010KT P6SM -SHRA SCT030 OVC060
     FM291800 12006KT P6SM -SHRA SCT020 OVC040
     FM292100 12006KT P6SM -SHRA SCT030 OVC060
     FM300300 VRB04KT P6SM -SHRA BKN020 OVC040
     FM300900 VRB03KT P6SM -SHRA SCT025 OVC050=

USA.gov is the U.S. government's official web portal to all federal, state and local government web resources and services.